Time;durP1;ratioP1;P1;durP2;ratioP2;P2;SDS_P1;SDS_P2;PMS_P1;PMS_P2;Temp;Humidity;BMP_temperature;BMP_pressure;BME280_temperature;BME280_humidity;BME280_pressure;Samples;Min_cycle;Max_cycle;Signal;HPM_P1;HPM_P2
2022/03/26 00:00:30;;;;;;;36.67;22.67;;;;;;;;;;5056328;28;20979;-77
2022/03/26 00:02:56;;;;;;;39.13;23.87;;;;;;;;;;5055871;28;20805;-78
2022/03/26 00:05:22;;;;;;;36.60;23.70;;;;;;;;;;5054645;28;20421;-78
2022/03/26 00:07:49;;;;;;;36.40;22.03;;;;;;;;;;5055833;28;20409;-78
2022/03/26 00:10:15;;;;;;;35.60;20.33;;;;;;;;;;5055459;28;20911;-78
2022/03/26 00:12:41;;;;;;;42.00;23.47;;;;;;;;;;5055524;28;20458;-77
2022/03/26 00:15:08;;;;;;;36.60;22.73;;;;;;;;;;5054178;28;20897;-77
2022/03/26 00:17:35;;;;;;;37.07;22.63;;;;;;;;;;5055215;28;20416;-77
2022/03/26 00:20:01;;;;;;;36.33;22.07;;;;;;;;;;5055419;28;20421;-78
2022/03/26 00:22:27;;;;;;;37.70;23.90;;;;;;;;;;5055616;28;20425;-77
2022/03/26 00:24:53;;;;;;;36.97;22.90;;;;;;;;;;5055550;28;20435;-77
2022/03/26 00:27:19;;;;;;;38.30;24.20;;;;;;;;;;5055438;28;20897;-78
2022/03/26 00:29:46;;;;;;;37.17;24.60;;;;;;;;;;5055573;28;20850;-78
2022/03/26 00:32:12;;;;;;;38.33;24.27;;;;;;;;;;5055120;28;20463;-77
2022/03/26 00:34:39;;;;;;;42.07;24.10;;;;;;;;;;5055903;28;20416;-78
2022/03/26 00:37:05;;;;;;;39.67;23.07;;;;;;;;;;5055162;28;20397;-78
2022/03/26 00:39:31;;;;;;;37.33;23.50;;;;;;;;;;5053791;28;20409;-77
2022/03/26 00:41:57;;;;;;;43.13;22.73;;;;;;;;;;5054664;28;20441;-78
2022/03/26 00:44:24;;;;;;;38.23;23.57;;;;;;;;;;5054985;28;20389;-77
2022/03/26 00:46:50;;;;;;;32.07;22.40;;;;;;;;;;5055787;28;20410;-78
2022/03/26 00:49:17;;;;;;;33.57;22.50;;;;;;;;;;5055396;28;20425;-77
2022/03/26 00:51:43;;;;;;;33.83;21.57;;;;;;;;;;5054653;28;20570;-78
2022/03/26 00:54:10;;;;;;;34.27;22.10;;;;;;;;;;5054351;28;20406;-77
2022/03/26 00:56:37;;;;;;;37.57;21.57;;;;;;;;;;5053418;28;20409;-77
2022/03/26 00:59:04;;;;;;;39.07;24.40;;;;;;;;;;5054936;28;20809;-77
2022/03/26 01:01:31;;;;;;;31.93;21.50;;;;;;;;;;5055134;28;20408;-77
2022/03/26 01:03:57;;;;;;;38.53;22.47;;;;;;;;;;5054958;28;20449;-77
2022/03/26 01:06:23;;;;;;;38.37;21.97;;;;;;;;;;5058500;28;20414;-77
2022/03/26 01:08:49;;;;;;;31.90;21.23;;;;;;;;;;5059764;28;20449;-77
2022/03/26 01:11:17;;;;;;;41.17;22.30;;;;;;;;;;5059285;28;20491;-77
2022/03/26 01:13:43;;;;;;;39.60;21.53;;;;;;;;;;5055239;28;21048;-77
2022/03/26 01:16:09;;;;;;;35.37;20.07;;;;;;;;;;5054110;28;20449;-77
2022/03/26 01:18:36;;;;;;;34.23;20.63;;;;;;;;;;5056088;28;20393;-77
2022/03/26 01:21:03;;;;;;;30.60;20.27;;;;;;;;;;5054772;28;20433;-77
2022/03/26 01:23:29;;;;;;;34.63;21.50;;;;;;;;;;5054836;28;20418;-77
2022/03/26 01:25:55;;;;;;;41.97;21.50;;;;;;;;;;5053224;28;20414;-77
2022/03/26 01:28:21;;;;;;;41.30;21.50;;;;;;;;;;5053820;28;20500;-78
2022/03/26 01:30:48;;;;;;;42.37;22.67;;;;;;;;;;5054563;28;20402;-77
2022/03/26 01:33:14;;;;;;;34.30;20.70;;;;;;;;;;5054394;28;20510;-77
2022/03/26 01:35:40;;;;;;;40.47;23.43;;;;;;;;;;5054608;28;20397;-78
2022/03/26 01:38:07;;;;;;;38.27;23.37;;;;;;;;;;5054205;28;20406;-78
2022/03/26 01:40:33;;;;;;;43.60;24.00;;;;;;;;;;5054658;28;20952;-78
2022/03/26 01:43:00;;;;;;;43.87;21.40;;;;;;;;;;5053222;28;20464;-78
2022/03/26 01:45:27;;;;;;;38.07;22.83;;;;;;;;;;5053477;28;20886;-77
2022/03/26 01:47:53;;;;;;;41.50;23.70;;;;;;;;;;5054348;28;20455;-77
2022/03/26 01:50:19;;;;;;;42.30;23.80;;;;;;;;;;5054519;28;20402;-77
2022/03/26 01:52:46;;;;;;;36.80;22.87;;;;;;;;;;5052977;28;20542;-77
2022/03/26 01:55:12;;;;;;;38.30;22.83;;;;;;;;;;5054265;28;20417;-77
2022/03/26 01:57:39;;;;;;;42.20;21.60;;;;;;;;;;5054602;28;20402;-77
2022/03/26 02:00:08;;;;;;;40.30;22.60;;;;;;;;;;5054405;28;20719;-77
2022/03/26 02:02:34;;;;;;;42.67;23.17;;;;;;;;;;5053253;28;20444;-79
2022/03/26 02:05:00;;;;;;;37.27;21.90;;;;;;;;;;5054605;28;20770;-77
2022/03/26 02:07:26;;;;;;;34.63;21.27;;;;;;;;;;5058814;28;20409;-77
2022/03/26 02:09:52;;;;;;;39.23;22.20;;;;;;;;;;5058603;28;20410;-77
2022/03/26 02:12:25;;;;;;;38.47;23.57;;;;;;;;;;5056587;28;20499;-77
2022/03/26 02:14:52;;;;;;;39.87;21.93;;;;;;;;;;5056887;28;20501;-77
2022/03/26 02:17:18;;;;;;;42.43;21.63;;;;;;;;;;5056417;28;20410;-77
2022/03/26 02:20:04;;;;;;;40.83;21.87;;;;;;;;;;5057589;28;20789;-77
2022/03/26 02:22:31;;;;;;;43.90;23.50;;;;;;;;;;5056966;28;20433;-78
2022/03/26 02:24:57;;;;;;;45.30;24.30;;;;;;;;;;5057060;28;20409;-78
2022/03/26 02:27:24;;;;;;;38.73;23.33;;;;;;;;;;5050716;28;20433;-77
2022/03/26 02:29:51;;;;;;;36.87;22.10;;;;;;;;;;5049442;28;20444;-78
2022/03/26 02:32:24;;;;;;;45.40;24.40;;;;;;;;;;5057609;28;20452;-78
2022/03/26 02:34:50;;;;;;;38.90;21.67;;;;;;;;;;5057736;28;20398;-77
2022/03/26 02:37:17;;;;;;;39.33;22.73;;;;;;;;;;5057643;28;20404;-78
2022/03/26 02:39:43;;;;;;;39.57;22.27;;;;;;;;;;5055879;28;20495;-77
2022/03/26 02:42:09;;;;;;;43.70;21.90;;;;;;;;;;5057144;28;20541;-77
2022/03/26 02:44:35;;;;;;;42.87;23.20;;;;;;;;;;5057200;28;20394;-77
2022/03/26 02:47:01;;;;;;;41.33;22.53;;;;;;;;;;5056623;28;20455;-77
2022/03/26 02:49:27;;;;;;;39.57;21.93;;;;;;;;;;5056732;28;20496;-77
2022/03/26 02:51:54;;;;;;;36.00;21.37;;;;;;;;;;5056655;28;20460;-78
2022/03/26 02:54:20;;;;;;;38.40;21.80;;;;;;;;;;5056767;28;20474;-78
2022/03/26 02:56:47;;;;;;;38.13;23.33;;;;;;;;;;5057144;28;20402;-78
2022/03/26 02:59:13;;;;;;;39.50;22.97;;;;;;;;;;5056762;28;20394;-77
2022/03/26 03:01:39;;;;;;;36.93;23.03;;;;;;;;;;5056581;28;20398;-78
2022/03/26 03:04:06;;;;;;;44.33;25.23;;;;;;;;;;5056655;28;20398;-78
2022/03/26 03:06:32;;;;;;;41.73;23.00;;;;;;;;;;5056582;28;20421;-77
2022/03/26 03:08:58;;;;;;;36.57;22.40;;;;;;;;;;5056379;28;20408;-77
2022/03/26 03:11:25;;;;;;;36.13;21.00;;;;;;;;;;5056520;28;20452;-77
2022/03/26 03:13:51;;;;;;;42.07;22.47;;;;;;;;;;5056156;28;20832;-78
2022/03/26 03:16:17;;;;;;;42.97;21.97;;;;;;;;;;5054216;28;20508;-77
2022/03/26 03:18:43;;;;;;;41.77;23.53;;;;;;;;;;5055803;28;20402;-77
2022/03/26 03:21:09;;;;;;;41.43;21.30;;;;;;;;;;5055002;28;20409;-77
2022/03/26 03:23:36;;;;;;;40.00;21.73;;;;;;;;;;5056013;28;20825;-77
2022/03/26 03:26:02;;;;;;;41.47;23.03;;;;;;;;;;5056263;28;20406;-77
2022/03/26 03:28:28;;;;;;;41.67;22.00;;;;;;;;;;5056054;28;20428;-77
2022/03/26 03:30:54;;;;;;;39.60;23.80;;;;;;;;;;5054554;28;20417;-77
2022/03/26 03:33:20;;;;;;;46.33;23.13;;;;;;;;;;5054623;28;20457;-78
2022/03/26 03:35:46;;;;;;;37.60;21.57;;;;;;;;;;5055797;28;20766;-78
2022/03/26 03:38:12;;;;;;;45.90;24.40;;;;;;;;;;5055984;28;20406;-78
2022/03/26 03:40:38;;;;;;;41.83;24.20;;;;;;;;;;5055799;28;20405;-78
2022/03/26 03:43:05;;;;;;;39.40;23.63;;;;;;;;;;5056255;28;20441;-77
2022/03/26 03:45:31;;;;;;;42.67;23.00;;;;;;;;;;5057283;28;20416;-77
2022/03/26 03:47:57;;;;;;;38.20;22.33;;;;;;;;;;5055805;28;20417;-77
2022/03/26 03:50:23;;;;;;;41.50;23.73;;;;;;;;;;5054492;28;20417;-77
2022/03/26 03:52:49;;;;;;;37.53;22.20;;;;;;;;;;5055407;28;20477;-78
2022/03/26 03:55:16;;;;;;;40.83;23.13;;;;;;;;;;5054174;28;20428;-77
2022/03/26 03:57:42;;;;;;;41.50;23.13;;;;;;;;;;5052088;28;20433;-77
2022/03/26 04:00:09;;;;;;;44.97;23.10;;;;;;;;;;5045319;28;20495;-77
2022/03/26 04:02:35;;;;;;;41.47;23.20;;;;;;;;;;5053695;28;20475;-77
2022/03/26 04:05:02;;;;;;;33.17;20.77;;;;;;;;;;5054500;28;20832;-77
2022/03/26 04:07:28;;;;;;;41.27;22.90;;;;;;;;;;5054123;28;20848;-78
2022/03/26 04:09:54;;;;;;;40.00;21.10;;;;;;;;;;5054316;28;20981;-77
2022/03/26 04:12:20;;;;;;;31.47;19.77;;;;;;;;;;5054008;28;20453;-77
2022/03/26 04:14:46;;;;;;;41.43;21.67;;;;;;;;;;5055475;28;20507;-77
2022/03/26 04:17:12;;;;;;;33.90;19.10;;;;;;;;;;5054066;28;20446;-78
2022/03/26 04:19:39;;;;;;;36.30;20.90;;;;;;;;;;5055373;28;20405;-77
2022/03/26 04:22:09;;;;;;;32.53;20.03;;;;;;;;;;5053928;28;20475;-77
2022/03/26 04:24:36;;;;;;;35.17;20.90;;;;;;;;;;5054936;28;20444;-78
2022/03/26 04:27:03;;;;;;;37.97;21.53;;;;;;;;;;5055941;28;20405;-77
2022/03/26 04:29:29;;;;;;;36.43;23.00;;;;;;;;;;5054710;28;20421;-77
2022/03/26 04:31:55;;;;;;;33.80;20.93;;;;;;;;;;5055643;28;20537;-77
2022/03/26 04:34:21;;;;;;;40.40;22.63;;;;;;;;;;5054809;28;20479;-77
2022/03/26 04:36:47;;;;;;;41.47;23.00;;;;;;;;;;5054599;28;20996;-77
2022/03/26 04:39:13;;;;;;;44.70;26.60;;;;;;;;;;5056456;28;20766;-77
2022/03/26 04:41:39;;;;;;;52.13;26.10;;;;;;;;;;5055550;28;20421;-77
2022/03/26 04:44:06;;;;;;;46.07;27.00;;;;;;;;;;5043329;23;20481;-77
2022/03/26 04:46:34;;;;;;;44.63;26.20;;;;;;;;;;5016393;28;20494;-77
2022/03/26 04:49:00;;;;;;;40.73;23.93;;;;;;;;;;5014366;28;20415;-77
2022/03/26 04:51:26;;;;;;;45.23;24.20;;;;;;;;;;5013790;28;20415;-77
2022/03/26 04:53:52;;;;;;;47.77;24.80;;;;;;;;;;5013853;28;20433;-77
2022/03/26 04:56:18;;;;;;;42.37;24.77;;;;;;;;;;5013765;28;20467;-77
2022/03/26 04:58:44;;;;;;;40.87;21.50;;;;;;;;;;5013672;28;20396;-77
2022/03/26 05:01:11;;;;;;;33.40;21.27;;;;;;;;;;5013965;28;20904;-78
2022/03/26 05:03:37;;;;;;;36.30;21.33;;;;;;;;;;5012473;28;20451;-77
2022/03/26 05:06:03;;;;;;;39.30;23.13;;;;;;;;;;5013611;28;20461;-77
2022/03/26 05:08:29;;;;;;;40.87;22.87;;;;;;;;;;5013945;28;20775;-77
2022/03/26 05:10:55;;;;;;;41.90;22.93;;;;;;;;;;5014060;28;20399;-77
2022/03/26 05:13:21;;;;;;;36.93;21.80;;;;;;;;;;5012196;28;20463;-77
2022/03/26 05:15:47;;;;;;;44.20;22.57;;;;;;;;;;5013611;28;20402;-77
2022/03/26 05:18:13;;;;;;;35.40;21.30;;;;;;;;;;5013672;28;20391;-77
2022/03/26 05:20:39;;;;;;;35.97;21.00;;;;;;;;;;5013680;28;20449;-76
2022/03/26 05:23:05;;;;;;;44.27;24.60;;;;;;;;;;5013408;28;20455;-76
2022/03/26 05:25:32;;;;;;;41.30;21.80;;;;;;;;;;5011818;28;20407;-76
2022/03/26 05:27:58;;;;;;;38.83;21.33;;;;;;;;;;5013414;28;20409;-76
2022/03/26 05:30:24;;;;;;;41.43;21.63;;;;;;;;;;5013162;28;20404;-77
2022/03/26 05:32:51;;;;;;;34.43;20.10;;;;;;;;;;5012838;28;20542;-77
2022/03/26 05:35:18;;;;;;;39.70;23.33;;;;;;;;;;5011702;28;20501;-77
2022/03/26 05:37:48;;;;;;;32.97;20.90;;;;;;;;;;5013485;28;20751;-77
2022/03/26 05:40:18;;;;;;;37.97;21.67;;;;;;;;;;5015336;28;20766;-77
2022/03/26 05:42:44;;;;;;;49.10;26.20;;;;;;;;;;5017180;28;20890;-77
2022/03/26 05:45:10;;;;;;;42.13;22.07;;;;;;;;;;5017162;28;20388;-77
2022/03/26 05:47:40;;;;;;;40.97;23.10;;;;;;;;;;5017985;28;20950;-77
2022/03/26 05:50:07;;;;;;;36.10;22.20;;;;;;;;;;5017182;28;20399;-78
2022/03/26 05:52:33;;;;;;;38.73;21.03;;;;;;;;;;5016940;28;20881;-77
2022/03/26 05:54:59;;;;;;;37.50;22.73;;;;;;;;;;5017047;28;20395;-77
2022/03/26 05:57:25;;;;;;;38.50;21.60;;;;;;;;;;5016884;28;20434;-77
2022/03/26 05:59:51;;;;;;;39.33;21.87;;;;;;;;;;5016920;28;20410;-77
2022/03/26 06:02:17;;;;;;;37.10;21.00;;;;;;;;;;5017092;28;20745;-76
2022/03/26 06:04:44;;;;;;;32.53;20.70;;;;;;;;;;5015362;28;20922;-77
2022/03/26 06:07:10;;;;;;;35.33;20.93;;;;;;;;;;5016859;28;20989;-78
2022/03/26 06:09:37;;;;;;;37.40;22.93;;;;;;;;;;5015203;28;20407;-76
2022/03/26 06:12:04;;;;;;;46.07;22.70;;;;;;;;;;5016124;28;20451;-77
2022/03/26 06:14:30;;;;;;;38.27;22.70;;;;;;;;;;5016311;28;20438;-77
2022/03/26 06:16:56;;;;;;;35.97;20.23;;;;;;;;;;5016091;28;20414;-78
2022/03/26 06:19:23;;;;;;;40.63;21.70;;;;;;;;;;5016074;28;20465;-76
2022/03/26 06:21:49;;;;;;;36.93;21.40;;;;;;;;;;5015469;28;20487;-78
2022/03/26 06:24:15;;;;;;;37.47;23.17;;;;;;;;;;5016076;28;20429;-77
2022/03/26 06:26:44;;;;;;;37.87;22.40;;;;;;;;;;5014966;28;20407;-77
2022/03/26 06:29:10;;;;;;;34.43;20.50;;;;;;;;;;5017035;28;20744;-77
2022/03/26 06:31:36;;;;;;;36.90;21.20;;;;;;;;;;5016524;28;20396;-77
2022/03/26 06:34:02;;;;;;;40.50;21.60;;;;;;;;;;5017845;28;20415;-77
2022/03/26 06:36:28;;;;;;;33.60;19.83;;;;;;;;;;5020450;28;20410;-78
2022/03/26 06:38:54;;;;;;;36.70;21.13;;;;;;;;;;5021835;28;20406;-78
2022/03/26 06:41:20;;;;;;;36.97;21.27;;;;;;;;;;5021085;28;20404;-78
2022/03/26 06:43:47;;;;;;;36.57;23.70;;;;;;;;;;5020847;28;20454;-78
2022/03/26 06:46:13;;;;;;;34.40;21.07;;;;;;;;;;5019526;28;20438;-78
2022/03/26 06:48:39;;;;;;;33.50;20.03;;;;;;;;;;5018014;28;20407;-77
2022/03/26 06:51:08;;;;;;;36.70;23.13;;;;;;;;;;5019138;28;20745;-77
2022/03/26 06:53:35;;;;;;;36.27;23.20;;;;;;;;;;5021474;28;20822;-77
2022/03/26 06:56:01;;;;;;;41.20;25.47;;;;;;;;;;5020301;28;20399;-77
2022/03/26 06:58:27;;;;;;;39.27;24.33;;;;;;;;;;5019659;28;20751;-77
2022/03/26 07:00:53;;;;;;;35.90;21.67;;;;;;;;;;5018075;28;20403;-77
2022/03/26 07:03:20;;;;;;;36.77;23.77;;;;;;;;;;5017333;28;20426;-77
2022/03/26 07:05:46;;;;;;;37.03;22.80;;;;;;;;;;5025005;28;20413;-77
2022/03/26 07:08:12;;;;;;;36.30;23.60;;;;;;;;;;5034258;28;20426;-79
2022/03/26 07:10:45;;;;;;;35.30;21.93;;;;;;;;;;5034445;28;20575;-78
2022/03/26 07:13:11;;;;;;;41.73;25.70;;;;;;;;;;5033797;28;20454;-77
2022/03/26 07:15:37;;;;;;;36.77;23.33;;;;;;;;;;5033989;28;20415;-77
2022/03/26 07:18:03;;;;;;;39.23;23.23;;;;;;;;;;5035592;28;20445;-77
2022/03/26 07:20:29;;;;;;;42.20;22.27;;;;;;;;;;5034293;28;20415;-77
2022/03/26 07:22:56;;;;;;;38.47;22.67;;;;;;;;;;5035396;28;20468;-78
2022/03/26 07:25:22;;;;;;;39.30;24.37;;;;;;;;;;5035582;28;20422;-77
2022/03/26 07:27:48;;;;;;;41.00;24.13;;;;;;;;;;5036299;28;20464;-78
2022/03/26 07:30:14;;;;;;;40.80;24.50;;;;;;;;;;5034497;28;20432;-77
2022/03/26 07:32:41;;;;;;;46.20;26.30;;;;;;;;;;5035914;28;20487;-78
2022/03/26 07:35:07;;;;;;;45.90;24.87;;;;;;;;;;5036671;28;20464;-77
2022/03/26 07:37:33;;;;;;;39.47;24.50;;;;;;;;;;5036088;28;20438;-78
2022/03/26 07:40:00;;;;;;;40.20;24.03;;;;;;;;;;5034931;28;20407;-78
2022/03/26 07:42:26;;;;;;;39.33;23.00;;;;;;;;;;5035445;28;20452;-78
2022/03/26 07:44:52;;;;;;;40.40;23.90;;;;;;;;;;5035083;28;20387;-78
2022/03/26 07:47:18;;;;;;;38.10;21.97;;;;;;;;;;5033767;28;20962;-77
2022/03/26 07:49:44;;;;;;;37.47;22.43;;;;;;;;;;5033415;28;20422;-77
2022/03/26 07:52:10;;;;;;;39.73;22.50;;;;;;;;;;5033534;28;20446;-77
2022/03/26 07:54:36;;;;;;;37.90;23.33;;;;;;;;;;5034902;28;20399;-78
2022/03/26 07:57:02;;;;;;;36.33;21.77;;;;;;;;;;5033802;28;20432;-78
2022/03/26 07:59:28;;;;;;;46.27;23.03;;;;;;;;;;5035238;28;20470;-77
2022/03/26 08:01:54;;;;;;;38.13;22.27;;;;;;;;;;5034389;28;20411;-77
2022/03/26 08:04:21;;;;;;;38.10;22.60;;;;;;;;;;5035517;28;20522;-77
2022/03/26 08:06:47;;;;;;;40.17;22.53;;;;;;;;;;5033774;28;20411;-78
2022/03/26 08:09:13;;;;;;;44.93;23.43;;;;;;;;;;5033850;28;20920;-77
2022/03/26 08:11:39;;;;;;;39.70;23.00;;;;;;;;;;5036880;28;20412;-76
2022/03/26 08:14:05;;;;;;;37.00;22.10;;;;;;;;;;5036108;28;20557;-78
2022/03/26 08:16:31;;;;;;;37.17;22.43;;;;;;;;;;5036299;28;20406;-77
2022/03/26 08:18:57;;;;;;;39.47;21.50;;;;;;;;;;5036118;28;20405;-77
2022/03/26 08:21:23;;;;;;;41.33;23.83;;;;;;;;;;5036057;28;20903;-78
2022/03/26 08:23:49;;;;;;;36.97;23.83;;;;;;;;;;5036574;28;20430;-77
2022/03/26 08:26:26;;;;;;;39.17;22.20;;;;;;;;;;5033863;28;20460;-77
2022/03/26 08:28:53;;;;;;;37.67;21.53;;;;;;;;;;5031836;28;20978;-76
2022/03/26 08:31:20;;;;;;;37.73;23.97;;;;;;;;;;5033363;28;20923;-77
2022/03/26 08:33:46;;;;;;;37.60;22.20;;;;;;;;;;5033169;28;20450;-77
2022/03/26 08:36:13;;;;;;;38.00;22.47;;;;;;;;;;5033033;28;20748;-77
2022/03/26 08:38:39;;;;;;;39.60;22.20;;;;;;;;;;5033492;28;20414;-77
2022/03/26 08:41:06;;;;;;;37.10;21.23;;;;;;;;;;5031593;28;20406;-77
2022/03/26 08:43:32;;;;;;;35.17;22.07;;;;;;;;;;4990685;28;1226905;-79
2022/03/26 08:45:58;;;;;;;37.17;23.83;;;;;;;;;;5037618;28;20176;-77
2022/03/26 08:48:24;;;;;;;39.83;23.77;;;;;;;;;;5038986;28;20510;-78
2022/03/26 08:50:51;;;;;;;37.67;22.70;;;;;;;;;;5038338;28;20895;-77
2022/03/26 08:53:17;;;;;;;43.23;24.63;;;;;;;;;;5033331;28;20462;-78
2022/03/26 08:55:43;;;;;;;45.27;24.10;;;;;;;;;;5033953;28;20411;-77
2022/03/26 08:58:10;;;;;;;36.83;23.00;;;;;;;;;;5037303;28;20398;-78
2022/03/26 09:00:37;;;;;;;37.93;24.77;;;;;;;;;;5036839;28;20398;-78
2022/03/26 09:03:03;;;;;;;43.67;26.10;;;;;;;;;;5037017;28;20614;-78
2022/03/26 09:05:30;;;;;;;43.00;24.70;;;;;;;;;;5035952;28;20895;-78
2022/03/26 09:07:56;;;;;;;43.63;25.23;;;;;;;;;;5035781;28;20402;-78
2022/03/26 09:10:22;;;;;;;45.20;25.17;;;;;;;;;;5036503;28;20875;-77
2022/03/26 09:12:48;;;;;;;51.40;25.60;;;;;;;;;;5035871;28;20458;-78
2022/03/26 09:15:15;;;;;;;42.60;25.20;;;;;;;;;;5035539;28;20779;-78
2022/03/26 09:17:41;;;;;;;38.20;24.90;;;;;;;;;;5040927;28;20403;-78
2022/03/26 09:20:07;;;;;;;40.57;22.20;;;;;;;;;;5039063;28;20448;-78
2022/03/26 09:22:34;;;;;;;40.60;24.23;;;;;;;;;;5036057;28;20799;-77
2022/03/26 09:25:00;;;;;;;43.33;24.23;;;;;;;;;;5035728;28;20413;-77
2022/03/26 09:27:26;;;;;;;46.23;24.47;;;;;;;;;;5038155;28;20497;-78
2022/03/26 09:29:53;;;;;;;42.20;25.20;;;;;;;;;;5035556;28;20402;-77
2022/03/26 09:32:19;;;;;;;40.80;25.17;;;;;;;;;;5034720;28;20465;-78
2022/03/26 09:34:45;;;;;;;40.77;25.83;;;;;;;;;;5035229;28;20449;-78
2022/03/26 09:37:12;;;;;;;38.17;24.13;;;;;;;;;;5035508;28;20403;-78
2022/03/26 09:39:38;;;;;;;41.70;24.23;;;;;;;;;;5036521;28;20403;-78
2022/03/26 09:42:05;;;;;;;40.07;23.47;;;;;;;;;;5036288;28;20410;-78
2022/03/26 09:44:34;;;;;;;41.60;25.57;;;;;;;;;;5035415;28;20488;-78
2022/03/26 09:47:01;;;;;;;43.70;26.00;;;;;;;;;;5033886;28;20782;-78
2022/03/26 09:49:28;;;;;;;43.50;27.20;;;;;;;;;;5035047;28;20453;-78
2022/03/26 09:51:54;;;;;;;45.00;26.57;;;;;;;;;;5033772;28;20427;-77
2022/03/26 09:54:21;;;;;;;43.23;23.73;;;;;;;;;;5034954;28;20970;-78
2022/03/26 09:56:47;;;;;;;40.70;24.60;;;;;;;;;;5035504;28;20413;-78
2022/03/26 09:59:13;;;;;;;45.67;24.97;;;;;;;;;;5035734;28;20905;-78
2022/03/26 10:01:39;;;;;;;36.67;23.63;;;;;;;;;;5033090;28;20399;-77
2022/03/26 10:04:19;;;;;;;44.80;25.93;;;;;;;;;;5032502;28;20425;-78
2022/03/26 10:06:48;;;;;;;37.43;24.10;;;;;;;;;;5032734;28;20387;-77
2022/03/26 10:09:25;;;;;;;44.90;24.30;;;;;;;;;;5031493;28;20407;-77
2022/03/26 10:11:58;;;;;;;42.30;23.80;;;;;;;;;;5033070;28;20397;-77
2022/03/26 10:14:24;;;;;;;42.93;26.80;;;;;;;;;;5031387;28;20422;-77
2022/03/26 10:16:53;;;;;;;45.07;25.03;;;;;;;;;;5033241;28;20486;-77
2022/03/26 10:19:22;;;;;;;45.53;24.93;;;;;;;;;;5033251;28;20856;-78
2022/03/26 10:21:49;;;;;;;39.30;25.00;;;;;;;;;;5033000;28;20395;-77
2022/03/26 10:24:15;;;;;;;42.23;27.30;;;;;;;;;;5031269;28;20435;-77
2022/03/26 10:26:42;;;;;;;40.83;24.30;;;;;;;;;;5035650;28;20412;-77
2022/03/26 10:29:10;;;;;;;41.93;23.47;;;;;;;;;;5036951;28;20398;-78
2022/03/26 10:34:21;;;;;;;47.13;26.73;;;;;;;;;;5039896;28;20445;-78
2022/03/26 10:36:56;;;;;;;38.20;25.30;;;;;;;;;;5039485;28;20386;-78
2022/03/26 10:39:23;;;;;;;44.33;26.20;;;;;;;;;;5047433;28;20469;-78
2022/03/26 10:41:50;;;;;;;45.87;26.83;;;;;;;;;;5041490;28;20402;-78
2022/03/26 10:44:17;;;;;;;45.40;25.70;;;;;;;;;;5070960;23;20503;-74
2022/03/26 10:46:43;;;;;;;38.27;24.03;;;;;;;;;;5055576;28;20515;-75
2022/03/26 10:49:09;;;;;;;42.17;24.47;;;;;;;;;;5055735;28;20458;-76
2022/03/26 10:51:36;;;;;;;45.33;26.67;;;;;;;;;;5055545;28;20406;-76
2022/03/26 10:54:09;;;;;;;43.67;25.87;;;;;;;;;;5055674;28;20484;-76
2022/03/26 10:56:35;;;;;;;37.93;24.60;;;;;;;;;;5055897;28;20386;-74
2022/03/26 10:59:02;;;;;;;46.30;25.10;;;;;;;;;;5055715;28;20386;-76
2022/03/26 11:01:28;;;;;;;38.43;24.27;;;;;;;;;;5055773;28;20397;-75
2022/03/26 11:03:54;;;;;;;39.80;24.60;;;;;;;;;;5055526;28;20442;-75
2022/03/26 11:06:24;;;;;;;38.67;24.17;;;;;;;;;;5055355;28;20401;-75
2022/03/26 11:08:51;;;;;;;40.10;26.10;;;;;;;;;;5054423;28;20386;-75
2022/03/26 11:11:20;;;;;;;38.67;23.97;;;;;;;;;;5055881;28;20919;-75
2022/03/26 11:13:51;;;;;;;42.50;25.50;;;;;;;;;;5055363;28;20453;-75
2022/03/26 11:16:40;;;;;;;40.27;26.37;;;;;;;;;;5055636;28;20382;-75
2022/03/26 11:19:12;;;;;;;44.30;24.87;;;;;;;;;;5055081;28;20417;-75
2022/03/26 11:21:57;;;;;;;41.80;25.17;;;;;;;;;;5055791;28;20437;-75
2022/03/26 11:24:26;;;;;;;45.03;25.47;;;;;;;;;;5055122;28;20425;-75
2022/03/26 11:27:11;;;;;;;39.00;23.97;;;;;;;;;;5055432;28;20769;-75
2022/03/26 11:30:14;;;;;;;39.27;24.27;;;;;;;;;;5055003;28;20402;-76
2022/03/26 11:32:43;;;;;;;36.60;23.00;;;;;;;;;;4993560;28;20456;-75
2022/03/26 11:35:16;;;;;;;40.30;24.23;;;;;;;;;;5040997;28;20497;-76
2022/03/26 11:37:58;;;;;;;36.97;21.33;;;;;;;;;;5054371;28;20374;-76
2022/03/26 11:40:46;;;;;;;41.93;21.53;;;;;;;;;;5055075;28;20405;-76
2022/03/26 11:43:15;;;;;;;33.87;21.97;;;;;;;;;;5054636;28;20971;-75
2022/03/26 11:51:30;;;;;;;35.63;23.90;;;;;;;;;;5054970;28;20429;-76
2022/03/26 11:54:04;;;;;;;38.73;21.27;;;;;;;;;;5054871;28;20469;-76
2022/03/26 11:56:31;;;;;;;32.80;23.00;;;;;;;;;;5055015;28;20393;-76
2022/03/26 11:59:03;;;;;;;35.13;22.33;;;;;;;;;;5053368;28;20417;-75
2022/03/26 12:01:40;;;;;;;37.00;21.83;;;;;;;;;;5054811;28;20947;-75
2022/03/26 12:04:10;;;;;;;32.80;23.73;;;;;;;;;;5054354;28;20432;-76
2022/03/26 12:06:47;;;;;;;32.50;19.80;;;;;;;;;;5054543;28;20422;-76
2022/03/26 12:09:28;;;;;;;32.93;22.27;;;;;;;;;;5054618;28;20405;-75
2022/03/26 12:12:15;;;;;;;36.03;21.00;;;;;;;;;;5054160;28;20421;-76
2022/03/26 12:15:00;;;;;;;38.10;23.00;;;;;;;;;;5054140;28;20436;-75
2022/03/26 12:17:44;;;;;;;37.73;22.83;;;;;;;;;;5053931;28;20413;-75
2022/03/26 12:20:23;;;;;;;34.90;22.47;;;;;;;;;;5053895;28;20452;-76
2022/03/26 12:22:50;;;;;;;34.57;22.53;;;;;;;;;;5053707;28;20408;-76
2022/03/26 12:25:19;;;;;;;32.30;22.13;;;;;;;;;;5053834;28;20437;-76
2022/03/26 12:27:45;;;;;;;34.63;22.50;;;;;;;;;;5053606;28;20405;-75
2022/03/26 12:30:11;;;;;;;29.57;20.77;;;;;;;;;;5053749;28;20459;-76
2022/03/26 12:32:39;;;;;;;36.97;21.10;;;;;;;;;;5053718;28;20444;-76
2022/03/26 12:35:06;;;;;;;34.90;21.60;;;;;;;;;;5053712;28;20409;-75
2022/03/26 12:37:33;;;;;;;31.90;22.10;;;;;;;;;;5054259;28;20417;-75
2022/03/26 12:40:00;;;;;;;35.53;22.03;;;;;;;;;;5052354;28;20440;-75
2022/03/26 12:42:26;;;;;;;32.73;21.73;;;;;;;;;;5053594;28;20416;-75
2022/03/26 12:44:53;;;;;;;36.70;21.50;;;;;;;;;;5053399;28;20825;-76
2022/03/26 12:47:20;;;;;;;35.90;21.30;;;;;;;;;;5053421;28;20416;-75
2022/03/26 12:49:50;;;;;;;31.43;20.70;;;;;;;;;;5052676;28;20886;-75
2022/03/26 12:52:19;;;;;;;36.27;20.40;;;;;;;;;;5053453;28;20949;-76
2022/03/26 12:54:52;;;;;;;31.73;20.67;;;;;;;;;;5053311;28;20430;-76
2022/03/26 12:57:18;;;;;;;30.80;20.37;;;;;;;;;;5053646;28;20378;-76
2022/03/26 12:59:51;;;;;;;32.30;21.10;;;;;;;;;;5053481;28;20447;-76
2022/03/26 13:02:18;;;;;;;34.80;21.67;;;;;;;;;;5053538;28;20812;-75
2022/03/26 13:04:44;;;;;;;35.17;19.50;;;;;;;;;;5053332;28;20423;-75
2022/03/26 13:07:10;;;;;;;32.67;21.27;;;;;;;;;;5053430;28;20401;-76
2022/03/26 13:09:36;;;;;;;29.90;19.40;;;;;;;;;;5053243;28;20408;-75
2022/03/26 13:12:02;;;;;;;34.17;20.80;;;;;;;;;;5053331;28;20405;-76
2022/03/26 13:14:28;;;;;;;32.57;20.83;;;;;;;;;;5053629;28;20425;-76
2022/03/26 13:16:54;;;;;;;32.80;20.40;;;;;;;;;;5053698;28;20417;-76
2022/03/26 13:19:20;;;;;;;30.40;20.40;;;;;;;;;;5053140;28;20405;-76
2022/03/26 13:21:51;;;;;;;32.20;22.50;;;;;;;;;;5053359;28;20452;-76
2022/03/26 13:24:20;;;;;;;30.37;20.67;;;;;;;;;;5053198;28;20944;-76
2022/03/26 13:26:53;;;;;;;29.97;19.13;;;;;;;;;;5053122;28;20398;-76
2022/03/26 13:29:23;;;;;;;31.10;20.53;;;;;;;;;;5053505;28;20737;-76
2022/03/26 13:31:51;;;;;;;28.10;19.80;;;;;;;;;;5052852;28;20413;-74
2022/03/26 13:34:18;;;;;;;25.53;18.33;;;;;;;;;;5052832;28;20421;-75
2022/03/26 13:36:46;;;;;;;28.17;18.90;;;;;;;;;;5051741;28;20409;-77
2022/03/26 13:39:15;;;;;;;32.60;21.10;;;;;;;;;;5052961;28;20412;-75
2022/03/26 13:41:41;;;;;;;30.73;19.60;;;;;;;;;;5053026;28;20493;-75
2022/03/26 13:44:08;;;;;;;31.10;22.07;;;;;;;;;;5052702;28;20480;-76
2022/03/26 13:46:37;;;;;;;37.07;21.57;;;;;;;;;;5051650;28;20471;-76
2022/03/26 13:49:03;;;;;;;32.47;21.50;;;;;;;;;;5052923;28;20459;-75
2022/03/26 13:51:31;;;;;;;30.60;20.23;;;;;;;;;;5052626;28;20408;-75
2022/03/26 13:54:00;;;;;;;33.33;21.67;;;;;;;;;;5052739;28;20506;-75
2022/03/26 13:56:27;;;;;;;34.30;19.87;;;;;;;;;;5053107;28;20466;-75
2022/03/26 13:58:53;;;;;;;34.13;21.33;;;;;;;;;;5052506;28;20397;-75
2022/03/26 14:01:19;;;;;;;27.20;18.57;;;;;;;;;;5054983;28;20413;-75
2022/03/26 14:03:51;;;;;;;30.30;18.60;;;;;;;;;;5056411;28;20429;-75
2022/03/26 14:06:17;;;;;;;29.67;20.60;;;;;;;;;;5056523;28;20385;-76
2022/03/26 14:08:47;;;;;;;36.03;23.33;;;;;;;;;;5056366;28;20405;-75
2022/03/26 14:11:14;;;;;;;29.70;19.13;;;;;;;;;;5056139;28;20386;-75
2022/03/26 14:13:40;;;;;;;32.80;19.83;;;;;;;;;;5056346;28;20464;-75
2022/03/26 14:16:06;;;;;;;29.07;18.50;;;;;;;;;;5056277;28;20411;-75
2022/03/26 14:18:32;;;;;;;30.37;20.20;;;;;;;;;;5056308;28;20432;-75
2022/03/26 14:20:58;;;;;;;30.77;19.00;;;;;;;;;;5054782;28;20409;-75
2022/03/26 14:23:24;;;;;;;28.93;19.00;;;;;;;;;;5055997;28;20433;-75
2022/03/26 14:25:51;;;;;;;31.50;19.33;;;;;;;;;;5056010;28;20435;-75